Nearby METAR Reports

 

KHOT - Hot Springs, Arkansas, USA
Distance from station: W 8mi, 14km
Updated: 06/19/2018 8:53am
Overcast
Overcast
 Wind from SE
Wind: SE 5 mph , 7 km/h
Temperature: 77°F , 25°C
Dew Point: 68°F , 20°C
Humidity: 74%
Barometer: 30.10 inHg , 1019.3 hPa
Clouds: Overcast
Visibility: 10 miles , 16 km
Cloud details: Mostly cloudy 5500 ft
Overcast 8000 ft
2018/06/19 13:53 KHOT 191353Z AUTO 14004KT 10SM BKN055 OVC080 25/20 A3010 RMK AO2 SLP187 T02500200
KMWT - Mount Ida, Arkansas, USA
Distance from station: W 36mi, 58km
Updated: 06/19/2018 8:53am
Clear
Clear
 Wind from varies
Wind: varies 5 mph , 7 km/h
Temperature: 81°F , 27°C
Heat Index: 85°F , 29°C
Dew Point: 70°F , 21°C
Humidity: 70%
Barometer: 30.08 inHg , 1018.6 hPa
Clouds: Clear
Visibility: 10 miles , 16 km
2018/06/19 13:53 KMWT 191353Z AUTO VRB04KT 10SM CLR 27/21 A3008 RMK AO2 SLP171 T02670211
 
KLIT - Little Rock, Arkansas, USA
Distance from station: ENE 45mi, 73km
Updated: 06/19/2018 8:53am
Mostly cloudy
Mostly cloudy
 Wind from S
Wind: S 5 mph , 7 km/h
Temperature: 75°F , 24°C
Dew Point: 70°F , 21°C
Humidity: 83%
Barometer: 30.10 inHg , 1019.3 hPa
Clouds: Mostly cloudy
Visibility: 10 miles , 16 km
Cloud details: Partly cloudy 6000 ft
Mostly cloudy 10000 ft
2018/06/19 13:53 KLIT 191353Z 18004KT 10SM SCT060 BKN100 24/21 A3010 RMK AO2 RAB26E45 SLP193 P0000 T02440211
KLRF - Little Rock Afb, Arkansas, USA
Distance from station: NE 56mi, 89km
Updated: 06/19/2018 8:56am
Partly cloudy
Partly cloudy
 Wind from SSW
Wind: SSW 8 mph , 13 km/h
Temperature: 79°F , 26°C
Dew Point: 68°F , 20°C
Humidity: 70%
Barometer: 30.10 inHg , 1019.3 hPa
Clouds: Partly cloudy
Visibility: 10 miles , 16 km
Cloud details: Partly cloudy 14000 ft
2018/06/19 13:56 KLRF 191356Z 20007KT 10SM SCT140 26/20 A3010 RMK AO2A SLP193 T02640200